createdAt,value
2019-05-05T00:00:50.350Z,11.00
2019-05-05T00:03:34.268Z,10.17
2019-05-05T00:06:05.300Z,8.17
2019-05-05T00:08:35.184Z,9.60
2019-05-05T00:11:25.769Z,10.40
2019-05-05T00:14:04.778Z,12.37
2019-05-05T00:16:57.084Z,10.10
2019-05-05T00:19:32.554Z,15.90
2019-05-05T00:21:56.740Z,11.90
2019-05-05T00:24:25.661Z,9.57
2019-05-05T00:26:55.274Z,10.10
2019-05-05T00:29:25.347Z,9.50
2019-05-05T00:31:54.777Z,12.30
2019-05-05T00:34:24.455Z,9.93
2019-05-05T00:36:55.215Z,11.33
2019-05-05T00:39:25.477Z,8.90
2019-05-05T00:41:55.515Z,10.97
2019-05-05T00:44:24.774Z,11.13
2019-05-05T00:47:31.093Z,8.73
2019-05-05T00:50:00.325Z,11.90
2019-05-05T00:52:29.169Z,12.80
2019-05-05T00:54:58.022Z,9.97
2019-05-05T00:57:26.943Z,10.40
2019-05-05T00:59:55.788Z,11.17
2019-05-05T01:02:37.077Z,12.00
2019-05-05T01:05:26.421Z,9.53
2019-05-05T01:07:55.724Z,10.60
2019-05-05T01:10:24.912Z,10.73
2019-05-05T01:12:54.469Z,11.00
2019-05-05T01:15:25.427Z,9.43
2019-05-05T01:17:55.283Z,11.27
2019-05-05T01:20:25.027Z,11.03
2019-05-05T01:22:55.334Z,11.33
2019-05-05T01:25:25.372Z,11.50
2019-05-05T01:27:54.739Z,14.63
2019-05-05T01:30:27.652Z,13.13
2019-05-05T01:33:01.957Z,11.10
2019-05-05T01:35:31.303Z,9.70
2019-05-05T01:38:06.189Z,10.70
2019-05-05T01:40:41.180Z,10.70
2019-05-05T01:43:10.024Z,10.43
2019-05-05T01:45:39.021Z,9.23
2019-05-05T01:48:07.929Z,9.67
2019-05-05T01:50:36.861Z,10.33
2019-05-05T01:53:05.856Z,11.27
2019-05-05T01:55:34.878Z,13.30
2019-05-05T01:58:04.736Z,14.60
2019-05-05T02:00:34.848Z,11.00
2019-05-05T02:03:04.662Z,8.83
2019-05-05T02:05:34.787Z,11.23
2019-05-05T02:08:04.923Z,11.73
2019-05-05T02:10:34.914Z,12.17
2019-05-05T02:13:04.775Z,10.20
2019-05-05T02:15:34.364Z,10.57
2019-05-05T02:18:04.625Z,9.93
2019-05-05T02:20:50.667Z,12.30
2019-05-05T02:23:19.649Z,8.50
2019-05-05T02:25:49.014Z,10.70
2019-05-05T02:28:18.028Z,13.90
2019-05-05T02:31:00.534Z,9.53
2019-05-05T02:33:29.443Z,9.20
2019-05-05T02:35:58.401Z,9.57
2019-05-05T02:38:27.426Z,10.57
2019-05-05T02:40:57.028Z,9.97
2019-05-05T02:43:27.713Z,8.07
2019-05-05T02:46:20.203Z,9.83
2019-05-05T02:48:50.767Z,9.10
2019-05-05T02:51:20.906Z,10.37
2019-05-05T02:53:53.719Z,10.30
2019-05-05T02:56:28.062Z,10.33
2019-05-05T02:59:01.636Z,10.20
2019-05-05T03:01:38.276Z,10.20
2019-05-05T03:04:08.325Z,12.87
2019-05-05T03:06:41.180Z,13.23
2019-05-05T03:09:10.573Z,11.57
2019-05-05T03:11:43.551Z,10.07
2019-05-05T03:14:14.595Z,11.47
2019-05-05T03:16:44.092Z,10.23
2019-05-05T03:19:14.239Z,14.03
2019-05-05T03:21:44.190Z,12.30
2019-05-05T03:24:14.324Z,11.97
2019-05-05T03:26:44.377Z,14.50
2019-05-05T03:29:17.646Z,14.50
2019-05-05T03:31:47.436Z,11.63
2019-05-05T03:34:16.749Z,13.20
2019-05-05T03:36:46.096Z,17.13
2019-05-05T03:39:26.140Z,12.63
2019-05-05T03:42:14.289Z,14.47
2019-05-05T03:44:48.820Z,11.60
2019-05-05T03:47:18.098Z,13.17
2019-05-05T03:49:47.345Z,12.40
2019-05-05T03:52:16.345Z,12.17
2019-05-05T03:54:45.441Z,13.63
2019-05-05T03:57:14.981Z,13.33
2019-05-05T03:59:44.779Z,14.70
2019-05-05T04:02:23.431Z,18.80
2019-05-05T04:04:55.013Z,15.47
2019-05-05T04:07:24.244Z,13.60
2019-05-05T04:09:54.271Z,15.03
2019-05-05T04:12:24.156Z,15.40
2019-05-05T04:14:54.571Z,13.80
2019-05-05T04:17:54.809Z,13.20
2019-05-05T04:20:29.305Z,14.20
2019-05-05T04:22:58.538Z,11.93
2019-05-05T04:25:27.451Z,13.80
2019-05-05T04:27:56.382Z,11.40
2019-05-05T04:30:25.221Z,12.40
2019-05-05T04:32:54.715Z,12.93
2019-05-05T04:35:24.676Z,13.40
2019-05-05T04:37:54.338Z,12.83
2019-05-05T04:40:24.177Z,12.73
2019-05-05T04:42:54.718Z,13.27
2019-05-05T04:45:24.235Z,15.53
2019-05-05T04:47:57.300Z,13.00
2019-05-05T04:50:37.337Z,12.10
2019-05-05T04:53:10.411Z,11.77
2019-05-05T04:55:39.750Z,12.17
2019-05-05T04:58:09.023Z,14.50
2019-05-05T05:00:38.215Z,16.20
2019-05-05T05:03:29.288Z,16.60
2019-05-05T05:06:04.267Z,13.40
2019-05-05T05:08:33.857Z,15.37
2019-05-05T05:11:03.693Z,15.03
2019-05-05T05:13:34.694Z,16.40
2019-05-05T05:16:04.554Z,14.03
2019-05-05T05:18:34.508Z,15.40
2019-05-05T05:21:04.081Z,15.53
2019-05-05T05:23:34.127Z,21.33
2019-05-05T05:26:05.071Z,14.53
2019-05-05T05:28:34.264Z,14.90
2019-05-05T05:31:03.899Z,13.87
2019-05-05T05:33:34.498Z,15.53
2019-05-05T05:36:04.159Z,16.83
2019-05-05T05:38:34.575Z,14.77
2019-05-05T05:41:10.721Z,16.23
2019-05-05T05:43:57.506Z,15.67
2019-05-05T05:46:41.104Z,18.43
2019-05-05T05:49:29.111Z,18.67
2019-05-05T05:52:12.114Z,19.00
2019-05-05T05:54:28.889Z,18.60
2019-05-05T05:56:57.728Z,20.57
2019-05-05T05:59:26.952Z,14.33
2019-05-05T06:02:09.095Z,17.80
2019-05-05T06:04:26.735Z,17.70
2019-05-05T06:06:55.989Z,13.40
2019-05-05T06:09:24.909Z,16.47
2019-05-05T06:11:54.205Z,15.37
2019-05-05T06:14:24.673Z,15.23
2019-05-05T06:16:54.020Z,16.20
2019-05-05T06:19:24.600Z,17.47
2019-05-05T06:21:54.278Z,16.43
2019-05-05T06:24:24.047Z,18.90
2019-05-05T06:26:54.732Z,16.77
2019-05-05T06:29:24.097Z,17.97
2019-05-05T06:31:53.790Z,15.90
2019-05-05T06:34:24.410Z,17.63
2019-05-05T06:36:53.708Z,15.30
2019-05-05T06:39:24.194Z,14.93
2019-05-05T06:42:30.801Z,16.87
2019-05-05T06:45:04.637Z,16.03
2019-05-05T06:47:38.358Z,18.40
2019-05-05T06:50:07.606Z,16.50
2019-05-05T06:52:44.362Z,15.57
2019-05-05T06:55:07.589Z,17.73
2019-05-05T06:57:36.432Z,14.40
2019-05-05T07:00:06.019Z,17.43
2019-05-05T07:02:34.936Z,15.63
2019-05-05T07:05:04.246Z,16.83
2019-05-05T07:07:34.319Z,15.13
2019-05-05T07:10:03.802Z,18.50
2019-05-05T07:12:34.742Z,16.03
2019-05-05T07:15:04.240Z,19.73
2019-05-05T07:17:33.856Z,12.43
2019-05-05T07:20:04.402Z,14.50
2019-05-05T07:22:34.650Z,15.07
2019-05-05T07:25:04.708Z,16.73
2019-05-05T07:27:34.030Z,18.70
2019-05-05T07:30:04.770Z,17.93
2019-05-05T07:32:33.926Z,15.37
2019-05-05T07:35:37.529Z,17.00
2019-05-05T07:38:06.470Z,18.50
2019-05-05T07:40:35.581Z,16.10
2019-05-05T07:43:04.668Z,14.87
2019-05-05T07:45:34.372Z,16.43
2019-05-05T07:48:04.782Z,13.23
2019-05-05T07:50:35.817Z,14.97
2019-05-05T07:53:12.379Z,14.67
2019-05-05T07:55:35.293Z,16.10
2019-05-05T07:58:04.407Z,14.40
2019-05-05T08:00:34.350Z,15.43
2019-05-05T08:03:03.803Z,13.00
2019-05-05T08:05:33.584Z,19.90
2019-05-05T08:08:04.601Z,15.57
2019-05-05T08:10:34.387Z,11.50
2019-05-05T08:13:04.667Z,12.80
2019-05-05T08:15:34.353Z,13.10
2019-05-05T08:18:27.683Z,13.00
2019-05-05T08:20:59.073Z,14.10
2019-05-05T08:23:37.318Z,11.20
2019-05-05T08:26:13.706Z,12.97
2019-05-05T08:28:51.549Z,12.13
2019-05-05T08:31:45.573Z,13.80
2019-05-05T08:34:14.725Z,13.77
2019-05-05T08:36:44.635Z,11.90
2019-05-05T08:39:14.384Z,10.00
2019-05-05T08:41:45.361Z,10.47
2019-05-05T08:44:16.257Z,11.10
2019-05-05T08:46:44.759Z,10.50
2019-05-05T08:49:13.780Z,10.03
2019-05-05T08:51:44.299Z,10.27
2019-05-05T08:54:14.313Z,12.70
2019-05-05T08:56:44.739Z,9.40
2019-05-05T08:59:14.439Z,8.37
2019-05-05T09:01:44.948Z,9.23
2019-05-05T09:04:14.286Z,11.03
2019-05-05T09:06:43.764Z,8.80
2019-05-05T09:09:14.435Z,11.07
2019-05-05T09:11:44.038Z,9.80
2019-05-05T09:14:14.945Z,10.50
2019-05-05T09:16:44.829Z,10.03
2019-05-05T09:19:17.340Z,10.70
2019-05-05T09:21:46.289Z,10.20
2019-05-05T09:24:21.130Z,9.60
2019-05-05T09:27:06.911Z,6.97
2019-05-05T09:29:38.180Z,8.30
2019-05-05T09:32:07.220Z,8.50
2019-05-05T09:34:36.551Z,6.50
2019-05-05T09:37:06.058Z,8.77
2019-05-05T09:39:35.061Z,6.80
2019-05-05T09:42:04.250Z,5.20
2019-05-05T09:44:34.611Z,6.37
2019-05-05T09:47:04.727Z,5.80
2019-05-05T09:49:34.023Z,5.17
2019-05-05T09:52:04.842Z,6.20
2019-05-05T09:54:34.569Z,5.53
2019-05-05T09:57:04.556Z,5.20
2019-05-05T09:59:34.647Z,10.17
2019-05-05T10:02:04.489Z,10.97
2019-05-05T10:04:34.866Z,8.47
2019-05-05T10:07:04.411Z,6.97
2019-05-05T10:09:34.531Z,8.63
2019-05-05T10:12:04.788Z,7.40
2019-05-05T10:14:34.345Z,8.63
2019-05-05T10:17:04.924Z,6.70
2019-05-05T10:19:34.030Z,7.03
2019-05-05T10:22:04.075Z,8.50
2019-05-05T10:24:38.204Z,11.50
2019-05-05T10:27:07.105Z,6.17
2019-05-05T10:29:36.037Z,6.40
2019-05-05T10:32:04.962Z,5.07
2019-05-05T10:34:33.919Z,14.47
2019-05-05T10:37:04.221Z,6.23
2019-05-05T10:39:47.316Z,4.63
2019-05-05T10:42:16.226Z,6.17
2019-05-05T10:44:45.095Z,8.27
2019-05-05T10:47:14.004Z,5.07
2019-05-05T10:49:44.207Z,5.47
2019-05-05T10:52:14.201Z,6.00
2019-05-05T10:54:44.822Z,6.50
2019-05-05T10:57:15.527Z,7.43
2019-05-05T10:59:44.974Z,5.60
2019-05-05T11:02:14.188Z,5.77
2019-05-05T11:04:44.172Z,4.63
2019-05-05T11:07:14.591Z,3.70
2019-05-05T11:09:44.387Z,3.03
2019-05-05T11:12:14.230Z,4.10
2019-05-05T11:14:44.398Z,5.83
2019-05-05T11:17:14.386Z,2.97
2019-05-05T11:19:44.207Z,7.23
2019-05-05T11:22:14.692Z,3.40
2019-05-05T11:24:56.110Z,17.63
2019-05-05T11:27:14.437Z,5.00
2019-05-05T11:30:00.989Z,5.93
2019-05-05T11:32:48.037Z,4.13
2019-05-05T11:35:18.730Z,4.50
2019-05-05T11:37:47.640Z,4.10
2019-05-05T11:40:18.164Z,13.37
2019-05-05T11:42:47.076Z,7.20
2019-05-05T11:45:15.937Z,3.93
2019-05-05T11:47:44.773Z,4.17
2019-05-05T11:50:13.778Z,3.67
2019-05-05T11:52:44.409Z,6.27
2019-05-05T11:55:15.007Z,5.37
2019-05-05T11:57:44.345Z,4.20
2019-05-05T12:00:14.118Z,4.50
2019-05-05T12:02:43.968Z,4.23
2019-05-05T12:05:14.075Z,3.93
2019-05-05T12:07:43.631Z,3.80
2019-05-05T12:10:30.785Z,2.70
2019-05-05T12:13:00.870Z,4.70
2019-05-05T12:15:29.995Z,4.70
2019-05-05T12:17:58.930Z,3.73
2019-05-05T12:20:34.218Z,4.20
2019-05-05T12:23:04.627Z,4.00
2019-05-05T12:25:47.294Z,5.83
2019-05-05T12:28:34.706Z,4.33
2019-05-05T12:31:06.198Z,3.43
2019-05-05T12:33:35.271Z,3.13
2019-05-05T12:36:04.534Z,3.70
2019-05-05T12:38:34.755Z,4.50
2019-05-05T12:41:04.437Z,5.07
2019-05-05T12:43:34.143Z,3.73
2019-05-05T12:46:13.973Z,5.20
2019-05-05T12:48:43.831Z,4.47
2019-05-05T12:51:14.715Z,4.33
2019-05-05T12:53:43.441Z,4.90
2019-05-05T12:56:14.489Z,5.63
2019-05-05T12:58:44.028Z,7.20
2019-05-05T13:01:19.116Z,4.10
2019-05-05T13:03:48.092Z,5.00
2019-05-05T13:06:17.061Z,3.60
2019-05-05T13:08:46.044Z,7.10
2019-05-05T13:11:15.069Z,16.07
2019-05-05T13:13:44.083Z,14.00
2019-05-05T13:16:13.631Z,5.50
2019-05-05T13:18:42.777Z,3.10
2019-05-05T13:21:36.665Z,5.23
2019-05-05T13:24:26.903Z,6.00
2019-05-05T13:27:00.204Z,3.00
2019-05-05T13:29:29.056Z,2.67
2019-05-05T13:31:57.978Z,3.80
2019-05-05T13:34:26.813Z,3.30
2019-05-05T13:36:55.665Z,3.33
2019-05-05T13:39:24.895Z,2.77
2019-05-05T13:41:54.099Z,3.03
2019-05-05T13:44:33.687Z,2.93
2019-05-05T13:47:04.154Z,4.47
2019-05-05T13:49:38.168Z,6.43
2019-05-05T13:52:07.068Z,3.67
2019-05-05T13:54:36.033Z,4.23
2019-05-05T13:57:05.086Z,3.70
2019-05-05T13:59:34.162Z,3.40
2019-05-05T14:02:03.317Z,5.00
2019-05-05T14:04:34.257Z,3.67
2019-05-05T14:07:04.054Z,2.97
2019-05-05T14:09:33.737Z,3.00
2019-05-05T14:12:04.181Z,5.37
2019-05-05T14:14:33.667Z,5.40
2019-05-05T14:17:04.162Z,4.30
2019-05-05T14:19:34.147Z,3.97
2019-05-05T14:22:04.406Z,3.97
2019-05-05T14:24:40.133Z,4.83
2019-05-05T14:27:09.168Z,2.87
2019-05-05T14:29:57.469Z,4.37
2019-05-05T14:32:30.404Z,2.63
2019-05-05T14:35:14.286Z,2.43
2019-05-05T14:37:47.205Z,2.73
2019-05-05T14:40:17.041Z,5.10
2019-05-05T14:42:46.057Z,3.20
2019-05-05T14:45:15.858Z,2.90
2019-05-05T14:47:44.914Z,4.03
2019-05-05T14:50:14.538Z,3.87
2019-05-05T14:52:44.076Z,3.53
2019-05-05T14:55:14.058Z,3.20
2019-05-05T14:57:44.057Z,4.37
2019-05-05T15:00:15.975Z,3.90
2019-05-05T15:02:45.009Z,4.07
2019-05-05T15:05:33.859Z,3.63
2019-05-05T15:08:13.437Z,3.23
2019-05-05T15:11:20.049Z,3.47
2019-05-05T15:13:49.235Z,5.00
2019-05-05T15:16:18.577Z,4.67
2019-05-05T15:18:47.784Z,3.10
2019-05-05T15:21:17.166Z,3.07
2019-05-05T15:23:47.330Z,6.73
2019-05-05T15:26:16.611Z,3.80
2019-05-05T15:28:58.652Z,3.60
2019-05-05T15:31:17.895Z,4.03
2019-05-05T15:33:47.603Z,3.67
2019-05-05T15:36:16.918Z,2.33
2019-05-05T15:38:46.038Z,3.33
2019-05-05T15:41:16.042Z,2.53
2019-05-05T15:43:45.198Z,3.50
2019-05-05T15:46:15.224Z,2.87
2019-05-05T15:48:44.741Z,2.77
2019-05-05T15:51:14.496Z,2.70
2019-05-05T15:53:44.837Z,2.83
2019-05-05T15:56:14.047Z,3.10
2019-05-05T15:58:43.528Z,2.67
2019-05-05T16:01:14.243Z,4.00
2019-05-05T16:03:43.798Z,2.90
2019-05-05T16:06:14.253Z,2.47
2019-05-05T16:08:44.531Z,3.20
2019-05-05T16:11:14.267Z,2.40
2019-05-05T16:13:44.049Z,3.47
2019-05-05T16:16:23.689Z,2.83
2019-05-05T16:19:05.509Z,3.37
2019-05-05T16:21:40.433Z,2.20
2019-05-05T16:24:15.474Z,2.73
2019-05-05T16:26:44.433Z,3.63
2019-05-05T16:29:14.818Z,8.60
2019-05-05T16:31:43.949Z,3.70
2019-05-05T16:34:14.260Z,2.50
2019-05-05T16:36:45.550Z,4.10
2019-05-05T16:39:16.393Z,5.03
2019-05-05T16:41:47.322Z,4.20
2019-05-05T16:44:16.305Z,4.70
2019-05-05T16:46:45.693Z,2.80
2019-05-05T16:49:14.886Z,4.93
2019-05-05T16:51:50.991Z,2.67
2019-05-05T16:54:26.440Z,7.13
2019-05-05T16:56:55.512Z,3.40
2019-05-05T16:59:24.425Z,3.27
2019-05-05T17:01:54.177Z,3.63
2019-05-05T17:04:27.014Z,3.30
2019-05-05T17:06:56.428Z,2.43
2019-05-05T17:09:25.359Z,4.30
2019-05-05T17:12:09.750Z,4.43
2019-05-05T17:15:06.064Z,4.13
2019-05-05T17:17:44.609Z,3.77
2019-05-05T17:20:16.787Z,3.00
2019-05-05T17:23:17.261Z,7.73
2019-05-05T17:25:46.120Z,3.77
2019-05-05T17:28:15.701Z,3.23
2019-05-05T17:30:44.689Z,4.30
2019-05-05T17:33:14.473Z,4.27
2019-05-05T17:35:43.812Z,4.70
2019-05-05T17:38:15.126Z,2.43
2019-05-05T17:41:03.700Z,3.47
2019-05-05T17:44:00.998Z,4.97
2019-05-05T17:46:40.989Z,2.73
2019-05-05T17:49:28.057Z,2.77
2019-05-05T17:52:03.556Z,4.40
2019-05-05T17:54:47.563Z,3.23
2019-05-05T17:57:16.926Z,3.23
2019-05-05T17:59:46.022Z,5.50
2019-05-05T18:02:15.226Z,4.00
2019-05-05T18:04:45.136Z,3.73
2019-05-05T18:07:23.799Z,4.73
2019-05-05T18:10:15.032Z,5.80
2019-05-05T18:13:06.294Z,5.07
2019-05-05T18:15:54.333Z,11.43
2019-05-05T18:18:23.527Z,3.67
2019-05-05T18:20:54.218Z,3.37
2019-05-05T18:23:23.676Z,4.63
2019-05-05T18:25:54.860Z,5.97
2019-05-05T18:28:24.708Z,4.17
2019-05-05T18:30:54.320Z,3.97
2019-05-05T18:33:24.659Z,4.07
2019-05-05T18:35:54.204Z,4.77
2019-05-05T18:38:23.647Z,6.43
2019-05-05T18:40:54.580Z,4.57
2019-05-05T18:43:30.552Z,7.13
2019-05-05T18:46:04.567Z,4.77
2019-05-05T18:48:34.509Z,4.57
2019-05-05T18:51:03.964Z,4.67
2019-05-05T18:53:34.200Z,6.27
2019-05-05T18:56:03.936Z,4.70
2019-05-05T18:58:34.269Z,4.50
2019-05-05T19:01:16.391Z,6.00
2019-05-05T19:04:04.245Z,6.67
2019-05-05T19:06:51.406Z,4.20
2019-05-05T19:09:21.709Z,4.70
2019-05-05T19:11:51.133Z,6.47
2019-05-05T19:14:20.086Z,5.30
2019-05-05T19:16:49.733Z,6.73
2019-05-05T19:19:19.006Z,11.80
2019-05-05T19:21:54.723Z,8.73
2019-05-05T19:24:23.805Z,6.03
2019-05-05T19:26:54.202Z,6.60
2019-05-05T19:29:24.309Z,5.77
2019-05-05T19:31:54.760Z,7.20
2019-05-05T19:34:24.769Z,4.50
2019-05-05T19:36:54.690Z,8.13
2019-05-05T19:39:24.524Z,5.33
2019-05-05T19:41:54.319Z,7.13
2019-05-05T19:44:25.822Z,5.60
2019-05-05T19:47:00.548Z,6.07
2019-05-05T19:49:29.750Z,13.83
2019-05-05T19:51:59.104Z,4.93
2019-05-05T19:54:28.293Z,6.20
2019-05-05T19:56:57.719Z,6.40
2019-05-05T19:59:26.887Z,5.37
2019-05-05T20:01:55.804Z,8.50
2019-05-05T20:04:24.652Z,7.57
2019-05-05T20:06:54.806Z,7.70
2019-05-05T20:09:24.881Z,5.10
2019-05-05T20:11:54.479Z,6.23
2019-05-05T20:14:24.776Z,4.70
2019-05-05T20:17:14.770Z,4.33
2019-05-05T20:19:46.820Z,4.57
2019-05-05T20:22:15.762Z,4.80
2019-05-05T20:24:45.457Z,4.43
2019-05-05T20:27:15.367Z,4.97
2019-05-05T20:29:44.605Z,4.30
2019-05-05T20:32:14.633Z,5.70
2019-05-05T20:35:09.240Z,5.43
2019-05-05T20:37:46.213Z,4.80
2019-05-05T20:40:16.584Z,6.17
2019-05-05T20:42:45.454Z,5.30
2019-05-05T20:45:17.800Z,6.57
2019-05-05T20:47:46.661Z,5.60
2019-05-05T20:50:15.509Z,5.93
2019-05-05T20:52:44.372Z,8.27
2019-05-05T20:55:14.092Z,5.80
2019-05-05T20:57:44.309Z,5.03
2019-05-05T21:00:16.107Z,6.00
2019-05-05T21:02:45.666Z,4.20
2019-05-05T21:05:14.729Z,7.03
2019-05-05T21:07:44.341Z,5.00
2019-05-05T21:10:14.334Z,10.60
2019-05-05T21:12:45.639Z,5.47
2019-05-05T21:15:14.269Z,6.90
2019-05-05T21:17:45.053Z,6.10
2019-05-05T21:20:14.516Z,5.30
2019-05-05T21:22:50.131Z,6.33
2019-05-05T21:25:27.364Z,5.30
2019-05-05T21:27:56.345Z,4.13
2019-05-05T21:30:25.211Z,4.80
2019-05-05T21:32:54.736Z,5.70
2019-05-05T21:35:24.185Z,4.60
2019-05-05T21:37:54.283Z,4.37
2019-05-05T21:40:25.110Z,3.60
2019-05-05T21:42:54.445Z,6.93
2019-05-05T21:45:23.502Z,6.80
2019-05-05T21:47:54.813Z,4.40
2019-05-05T21:50:33.867Z,4.97
2019-05-05T21:53:17.404Z,5.37
2019-05-05T21:56:06.417Z,5.27
2019-05-05T21:58:39.613Z,9.27
2019-05-05T22:01:14.967Z,5.50
2019-05-05T22:03:44.508Z,8.13
2019-05-05T22:06:14.636Z,8.03
2019-05-05T22:08:44.082Z,7.23
2019-05-05T22:11:14.641Z,10.23
2019-05-05T22:13:44.344Z,5.70
2019-05-05T22:16:13.727Z,7.43
2019-05-05T22:18:44.639Z,8.67
2019-05-05T22:21:36.148Z,7.20
2019-05-05T22:24:23.860Z,6.40
2019-05-05T22:26:54.114Z,5.07
2019-05-05T22:29:24.888Z,7.40
2019-05-05T22:31:54.156Z,5.90
2019-05-05T22:34:24.106Z,7.40
2019-05-05T22:36:53.269Z,7.93
2019-05-05T22:39:24.131Z,7.43
2019-05-05T22:41:54.335Z,6.63
2019-05-05T22:44:24.353Z,7.27
2019-05-05T22:46:53.846Z,5.70
2019-05-05T22:49:24.140Z,5.60
2019-05-05T22:51:54.151Z,5.83
2019-05-05T22:54:24.131Z,8.07
2019-05-05T22:56:53.885Z,6.20
2019-05-05T22:59:25.990Z,4.50
2019-05-05T23:01:54.204Z,6.90
2019-05-05T23:04:57.829Z,6.10
2019-05-05T23:07:30.058Z,10.80
2019-05-05T23:09:59.050Z,8.03
2019-05-05T23:12:28.036Z,4.80
2019-05-05T23:14:56.893Z,4.97
2019-05-05T23:17:34.160Z,6.40
2019-05-05T23:20:16.281Z,7.80
2019-05-05T23:23:00.614Z,6.33
2019-05-05T23:25:34.053Z,6.37
2019-05-05T23:28:04.090Z,8.43
2019-05-05T23:30:41.524Z,6.77
2019-05-05T23:33:03.722Z,6.40
2019-05-05T23:35:34.393Z,4.97
2019-05-05T23:38:03.592Z,5.27
2019-05-05T23:40:34.352Z,6.17
2019-05-05T23:43:04.528Z,6.23
2019-05-05T23:45:34.087Z,11.10
2019-05-05T23:48:03.707Z,5.60
2019-05-05T23:50:33.790Z,6.83
2019-05-05T23:53:02.844Z,4.50
2019-05-05T23:55:34.279Z,4.50
2019-05-05T23:58:03.774Z,5.83
